Beerse, Belgium
Current Conditions -  °F | °C
As of 5:47 PM on Wednesday 22 Oct 2014 (Local Time) from EHGR Reporting Station
Overcast Overcast  
Wind Chill: 52°   Ceiling: 5300
Heat Index: 52°   Visibility: 6mi
Dew Point: 46°   Wind: 8mph
Humidity: 82%   Direction: 300°WNW
Pressure: 30.15"   Gusts: NA
Location:  51.32°N, 4.85°E
Report Text: EHGR 221547Z AUTO 30007KT 9999 R10/2900 BKN053 OVC058 11/08 Q1021 BLU 30008KT 9999 SCT025 BKN050
Loading
Personal Weather Stations






























Interactive Weather Map New forecast layout! Learn more

10-Day Weather Forecast

Advertisements
Track Severe Weather on mobile